<?xml version="1.0" encoding="UTF-8" standalone="no" ?>
<gpx xmlns="http://www.topografix.com/GPX/1/1" xmlns:xsi="http://www.w3.org/2001/XMLSchema-instance" xsi:schemaLocation="http://www.topografix.com/GPX/1/1 http://www.topografix.com/GPX/1/1/gpx.xsd" version="1.1" creator="VisuGPX - https://www.visugpx.com">
  <metadata>
    <name>2021-03-28 16:44:07</name>
    <desc><![CDATA[Promenade post covid dans la plaine de Reymure.]]></desc>
  </metadata>
  <trk>
    <name><![CDATA[2021-03-28 16:44:07]]></name>
    <trkseg>
      <trkpt lat="45.08641" lon="5.68911">
        <ele>277</ele>
        <time>2021-03-28T12:14:42Z</time>
      </trkpt>
      <trkpt lat="45.08641" lon="5.6891">
        <ele>275.07</ele>
        <time>2021-03-28T12:15:09Z</time>
      </trkpt>
      <trkpt lat="45.08642" lon="5.6891">
        <ele>275.07</ele>
        <time>2021-03-28T12:15:14Z</time>
      </trkpt>
      <trkpt lat="45.08647" lon="5.68912">
        <ele>275.07</ele>
        <time>2021-03-28T12:15:19Z</time>
      </trkpt>
      <trkpt lat="45.08648" lon="5.68913">
        <ele>275.07</ele>
        <time>2021-03-28T12:15:20Z</time>
      </trkpt>
      <trkpt lat="45.08647" lon="5.68913">
        <ele>275.07</ele>
        <time>2021-03-28T12:15:24Z</time>
      </trkpt>
      <trkpt lat="45.08646" lon="5.68912">
        <ele>275.07</ele>
        <time>2021-03-28T12:15:25Z</time>
      </trkpt>
      <trkpt lat="45.08645" lon="5.68912">
        <ele>275.07</ele>
        <time>2021-03-28T12:15:26Z</time>
      </trkpt>
      <trkpt lat="45.08644" lon="5.68911">
        <ele>275.56</ele>
        <time>2021-03-28T12:15:27Z</time>
      </trkpt>
      <trkpt lat="45.08643" lon="5.68911">
        <ele>275.56</ele>
        <time>2021-03-28T12:15:28Z</time>
      </trkpt>
      <trkpt lat="45.08642" lon="5.6891">
        <ele>276.04</ele>
        <time>2021-03-28T12:15:29Z</time>
      </trkpt>
      <trkpt lat="45.08638" lon="5.6891">
        <ele>276.04</ele>
        <time>2021-03-28T12:15:42Z</time>
      </trkpt>
      <trkpt lat="45.08642" lon="5.68914">
        <ele>276.52</ele>
        <time>2021-03-28T12:15:59Z</time>
      </trkpt>
      <trkpt lat="45.0865" lon="5.68926">
        <ele>275.07</ele>
        <time>2021-03-28T12:16:13Z</time>
      </trkpt>
      <trkpt lat="45.08662" lon="5.68931">
        <ele>271.23</ele>
        <time>2021-03-28T12:16:28Z</time>
      </trkpt>
      <trkpt lat="45.08669" lon="5.68934">
        <ele>267.86</ele>
        <time>2021-03-28T12:16:40Z</time>
      </trkpt>
      <trkpt lat="45.08681" lon="5.68948">
        <ele>261.14</ele>
        <time>2021-03-28T12:16:58Z</time>
      </trkpt>
      <trkpt lat="45.0869" lon="5.68964">
        <ele>254.89</ele>
        <time>2021-03-28T12:17:15Z</time>
      </trkpt>
      <trkpt lat="45.08697" lon="5.68983">
        <ele>253.44</ele>
        <time>2021-03-28T12:17:30Z</time>
      </trkpt>
      <trkpt lat="45.08709" lon="5.68993">
        <ele>257.77</ele>
        <time>2021-03-28T12:17:41Z</time>
      </trkpt>
      <trkpt lat="45.0871" lon="5.68994">
        <ele>257.77</ele>
        <time>2021-03-28T12:17:42Z</time>
      </trkpt>
      <trkpt lat="45.08731" lon="5.69013">
        <ele>265.94</ele>
        <time>2021-03-28T12:17:57Z</time>
      </trkpt>
      <trkpt lat="45.08746" lon="5.69029">
        <ele>265.46</ele>
        <time>2021-03-28T12:18:15Z</time>
      </trkpt>
      <trkpt lat="45.08757" lon="5.69042">
        <ele>265.46</ele>
        <time>2021-03-28T12:18:28Z</time>
      </trkpt>
      <trkpt lat="45.08758" lon="5.69043">
        <ele>265.94</ele>
        <time>2021-03-28T12:18:29Z</time>
      </trkpt>
      <trkpt lat="45.08758" lon="5.69045">
        <ele>265.94</ele>
        <time>2021-03-28T12:18:30Z</time>
      </trkpt>
      <trkpt lat="45.08761" lon="5.69055">
        <ele>267.38</ele>
        <time>2021-03-28T12:18:36Z</time>
      </trkpt>
      <trkpt lat="45.08757" lon="5.69083">
        <ele>267.86</ele>
        <time>2021-03-28T12:18:55Z</time>
      </trkpt>
      <trkpt lat="45.08753" lon="5.69112">
        <ele>267.86</ele>
        <time>2021-03-28T12:19:14Z</time>
      </trkpt>
      <trkpt lat="45.0875" lon="5.69131">
        <ele>267.86</ele>
        <time>2021-03-28T12:19:29Z</time>
      </trkpt>
      <trkpt lat="45.08744" lon="5.69158">
        <ele>270.27</ele>
        <time>2021-03-28T12:19:46Z</time>
      </trkpt>
      <trkpt lat="45.0874" lon="5.69185">
        <ele>268.35</ele>
        <time>2021-03-28T12:20:06Z</time>
      </trkpt>
      <trkpt lat="45.08735" lon="5.69209">
        <ele>268.35</ele>
        <time>2021-03-28T12:20:21Z</time>
      </trkpt>
      <trkpt lat="45.08732" lon="5.69233">
        <ele>268.35</ele>
        <time>2021-03-28T12:20:36Z</time>
      </trkpt>
      <trkpt lat="45.08732" lon="5.69235">
        <ele>268.35</ele>
        <time>2021-03-28T12:20:37Z</time>
      </trkpt>
      <trkpt lat="45.08731" lon="5.69236">
        <ele>268.35</ele>
        <time>2021-03-28T12:20:38Z</time>
      </trkpt>
      <trkpt lat="45.08728" lon="5.69264">
        <ele>267.86</ele>
        <time>2021-03-28T12:20:58Z</time>
      </trkpt>
      <trkpt lat="45.08724" lon="5.6929">
        <ele>266.42</ele>
        <time>2021-03-28T12:21:15Z</time>
      </trkpt>
      <trkpt lat="45.08722" lon="5.69314">
        <ele>265.46</ele>
        <time>2021-03-28T12:21:31Z</time>
      </trkpt>
      <trkpt lat="45.0872" lon="5.69322">
        <ele>265.46</ele>
        <time>2021-03-28T12:21:36Z</time>
      </trkpt>
      <trkpt lat="45.08716" lon="5.69345">
        <ele>264.02</ele>
        <time>2021-03-28T12:21:52Z</time>
      </trkpt>
      <trkpt lat="45.08715" lon="5.69359">
        <ele>263.06</ele>
        <time>2021-03-28T12:22:02Z</time>
      </trkpt>
      <trkpt lat="45.08712" lon="5.6939">
        <ele>266.42</ele>
        <time>2021-03-28T12:22:22Z</time>
      </trkpt>
      <trkpt lat="45.08712" lon="5.69396">
        <ele>266.9</ele>
        <time>2021-03-28T12:22:26Z</time>
      </trkpt>
      <trkpt lat="45.08709" lon="5.69425">
        <ele>266.9</ele>
        <time>2021-03-28T12:22:45Z</time>
      </trkpt>
      <trkpt lat="45.08707" lon="5.69451">
        <ele>266.9</ele>
        <time>2021-03-28T12:23:02Z</time>
      </trkpt>
      <trkpt lat="45.08705" lon="5.69481">
        <ele>265.94</ele>
        <time>2021-03-28T12:23:20Z</time>
      </trkpt>
      <trkpt lat="45.08706" lon="5.69497">
        <ele>265.94</ele>
        <time>2021-03-28T12:23:33Z</time>
      </trkpt>
      <trkpt lat="45.08706" lon="5.69527">
        <ele>265.46</ele>
        <time>2021-03-28T12:23:53Z</time>
      </trkpt>
      <trkpt lat="45.08705" lon="5.69559">
        <ele>264.98</ele>
        <time>2021-03-28T12:24:14Z</time>
      </trkpt>
      <trkpt lat="45.08703" lon="5.69588">
        <ele>267.38</ele>
        <time>2021-03-28T12:24:33Z</time>
      </trkpt>
      <trkpt lat="45.08702" lon="5.69618">
        <ele>270.75</ele>
        <time>2021-03-28T12:24:52Z</time>
      </trkpt>
      <trkpt lat="45.08706" lon="5.69642">
        <ele>270.27</ele>
        <time>2021-03-28T12:25:09Z</time>
      </trkpt>
      <trkpt lat="45.08712" lon="5.69669">
        <ele>267.86</ele>
        <time>2021-03-28T12:25:27Z</time>
      </trkpt>
      <trkpt lat="45.08716" lon="5.69687">
        <ele>266.42</ele>
        <time>2021-03-28T12:25:41Z</time>
      </trkpt>
      <trkpt lat="45.08722" lon="5.69717">
        <ele>263.06</ele>
        <time>2021-03-28T12:26:01Z</time>
      </trkpt>
      <trkpt lat="45.08723" lon="5.69723">
        <ele>263.54</ele>
        <time>2021-03-28T12:26:05Z</time>
      </trkpt>
      <trkpt lat="45.08725" lon="5.69751">
        <ele>260.65</ele>
        <time>2021-03-28T12:26:25Z</time>
      </trkpt>
      <trkpt lat="45.08725" lon="5.69776">
        <ele>259.69</ele>
        <time>2021-03-28T12:26:43Z</time>
      </trkpt>
      <trkpt lat="45.08722" lon="5.69803">
        <ele>259.69</ele>
        <time>2021-03-28T12:27:02Z</time>
      </trkpt>
      <trkpt lat="45.0872" lon="5.69825">
        <ele>263.54</ele>
        <time>2021-03-28T12:27:20Z</time>
      </trkpt>
      <trkpt lat="45.08716" lon="5.69841">
        <ele>266.9</ele>
        <time>2021-03-28T12:27:37Z</time>
      </trkpt>
      <trkpt lat="45.08712" lon="5.69866">
        <ele>270.27</ele>
        <time>2021-03-28T12:27:54Z</time>
      </trkpt>
      <trkpt lat="45.08709" lon="5.69893">
        <ele>271.23</ele>
        <time>2021-03-28T12:28:11Z</time>
      </trkpt>
      <trkpt lat="45.08707" lon="5.69904">
        <ele>270.75</ele>
        <time>2021-03-28T12:28:18Z</time>
      </trkpt>
      <trkpt lat="45.08704" lon="5.69922">
        <ele>268.83</ele>
        <time>2021-03-28T12:28:33Z</time>
      </trkpt>
      <trkpt lat="45.08702" lon="5.6995">
        <ele>268.35</ele>
        <time>2021-03-28T12:28:50Z</time>
      </trkpt>
      <trkpt lat="45.08698" lon="5.69977">
        <ele>268.35</ele>
        <time>2021-03-28T12:29:09Z</time>
      </trkpt>
      <trkpt lat="45.08695" lon="5.70004">
        <ele>271.23</ele>
        <time>2021-03-28T12:29:27Z</time>
      </trkpt>
      <trkpt lat="45.08692" lon="5.70031">
        <ele>273.15</ele>
        <time>2021-03-28T12:29:45Z</time>
      </trkpt>
      <trkpt lat="45.08692" lon="5.70059">
        <ele>275.07</ele>
        <time>2021-03-28T12:30:05Z</time>
      </trkpt>
      <trkpt lat="45.08691" lon="5.70073">
        <ele>274.59</ele>
        <time>2021-03-28T12:30:21Z</time>
      </trkpt>
      <trkpt lat="45.08691" lon="5.70098">
        <ele>277</ele>
        <time>2021-03-28T12:30:39Z</time>
      </trkpt>
      <trkpt lat="45.08691" lon="5.70101">
        <ele>277</ele>
        <time>2021-03-28T12:30:41Z</time>
      </trkpt>
      <trkpt lat="45.08689" lon="5.70129">
        <ele>279.88</ele>
        <time>2021-03-28T12:31:00Z</time>
      </trkpt>
      <trkpt lat="45.0869" lon="5.70149">
        <ele>280.84</ele>
        <time>2021-03-28T12:31:15Z</time>
      </trkpt>
      <trkpt lat="45.0869" lon="5.70155">
        <ele>279.88</ele>
        <time>2021-03-28T12:31:20Z</time>
      </trkpt>
      <trkpt lat="45.08691" lon="5.70168">
        <ele>279.4</ele>
        <time>2021-03-28T12:31:35Z</time>
      </trkpt>
      <trkpt lat="45.08691" lon="5.70171">
        <ele>278.92</ele>
        <time>2021-03-28T12:31:40Z</time>
      </trkpt>
      <trkpt lat="45.0869" lon="5.70193">
        <ele>280.36</ele>
        <time>2021-03-28T12:31:57Z</time>
      </trkpt>
      <trkpt lat="45.08689" lon="5.70214">
        <ele>278.92</ele>
        <time>2021-03-28T12:32:13Z</time>
      </trkpt>
      <trkpt lat="45.08689" lon="5.70227">
        <ele>277.48</ele>
        <time>2021-03-28T12:32:27Z</time>
      </trkpt>
      <trkpt lat="45.0869" lon="5.70231">
        <ele>274.59</ele>
        <time>2021-03-28T12:32:50Z</time>
      </trkpt>
      <trkpt lat="45.08688" lon="5.70229">
        <ele>275.56</ele>
        <time>2021-03-28T12:33:25Z</time>
      </trkpt>
      <trkpt lat="45.0869" lon="5.70227">
        <ele>274.59</ele>
        <time>2021-03-28T12:33:39Z</time>
      </trkpt>
      <trkpt lat="45.08683" lon="5.70236">
        <ele>270.27</ele>
        <time>2021-03-28T12:33:53Z</time>
      </trkpt>
      <trkpt lat="45.08678" lon="5.70236">
        <ele>269.31</ele>
        <time>2021-03-28T12:33:58Z</time>
      </trkpt>
      <trkpt lat="45.08663" lon="5.70232">
        <ele>266.9</ele>
        <time>2021-03-28T12:34:13Z</time>
      </trkpt>
      <trkpt lat="45.08649" lon="5.70231">
        <ele>266.9</ele>
        <time>2021-03-28T12:34:28Z</time>
      </trkpt>
      <trkpt lat="45.08648" lon="5.70231">
        <ele>267.38</ele>
        <time>2021-03-28T12:34:29Z</time>
      </trkpt>
      <trkpt lat="45.08626" lon="5.7023">
        <ele>269.31</ele>
        <time>2021-03-28T12:34:49Z</time>
      </trkpt>
      <trkpt lat="45.08607" lon="5.70229">
        <ele>269.79</ele>
        <time>2021-03-28T12:35:06Z</time>
      </trkpt>
      <trkpt lat="45.0859" lon="5.70228">
        <ele>267.86</ele>
        <time>2021-03-28T12:35:24Z</time>
      </trkpt>
      <trkpt lat="45.08579" lon="5.70227">
        <ele>268.83</ele>
        <time>2021-03-28T12:35:39Z</time>
      </trkpt>
      <trkpt lat="45.08573" lon="5.70227">
        <ele>270.27</ele>
        <time>2021-03-28T12:35:57Z</time>
      </trkpt>
      <trkpt lat="45.0857" lon="5.70229">
        <ele>270.27</ele>
        <time>2021-03-28T12:36:19Z</time>
      </trkpt>
      <trkpt lat="45.08554" lon="5.70227">
        <ele>268.83</ele>
        <time>2021-03-28T12:36:36Z</time>
      </trkpt>
      <trkpt lat="45.08543" lon="5.70227">
        <ele>269.79</ele>
        <time>2021-03-28T12:36:53Z</time>
      </trkpt>
      <trkpt lat="45.08533" lon="5.70225">
        <ele>269.79</ele>
        <time>2021-03-28T12:37:09Z</time>
      </trkpt>
      <trkpt lat="45.08516" lon="5.70226">
        <ele>268.35</ele>
        <time>2021-03-28T12:37:26Z</time>
      </trkpt>
      <trkpt lat="45.08499" lon="5.70224">
        <ele>268.35</ele>
        <time>2021-03-28T12:37:42Z</time>
      </trkpt>
      <trkpt lat="45.08481" lon="5.70221">
        <ele>266.9</ele>
        <time>2021-03-28T12:37:58Z</time>
      </trkpt>
      <trkpt lat="45.08464" lon="5.70221">
        <ele>265.46</ele>
        <time>2021-03-28T12:38:15Z</time>
      </trkpt>
      <trkpt lat="45.08458" lon="5.70223">
        <ele>265.94</ele>
        <time>2021-03-28T12:38:31Z</time>
      </trkpt>
      <trkpt lat="45.08451" lon="5.70226">
        <ele>264.02</ele>
        <time>2021-03-28T12:38:41Z</time>
      </trkpt>
      <trkpt lat="45.08445" lon="5.70247">
        <ele>264.98</ele>
        <time>2021-03-28T12:38:58Z</time>
      </trkpt>
      <trkpt lat="45.08442" lon="5.70263">
        <ele>264.02</ele>
        <time>2021-03-28T12:39:13Z</time>
      </trkpt>
      <trkpt lat="45.08436" lon="5.70269">
        <ele>263.06</ele>
        <time>2021-03-28T12:39:28Z</time>
      </trkpt>
      <trkpt lat="45.08441" lon="5.70276">
        <ele>262.1</ele>
        <time>2021-03-28T12:39:46Z</time>
      </trkpt>
      <trkpt lat="45.08441" lon="5.70277">
        <ele>262.1</ele>
        <time>2021-03-28T12:39:47Z</time>
      </trkpt>
      <trkpt lat="45.08438" lon="5.70301">
        <ele>265.94</ele>
        <time>2021-03-28T12:40:05Z</time>
      </trkpt>
      <trkpt lat="45.08434" lon="5.70326">
        <ele>268.35</ele>
        <time>2021-03-28T12:40:23Z</time>
      </trkpt>
      <trkpt lat="45.08432" lon="5.70338">
        <ele>266.42</ele>
        <time>2021-03-28T12:40:40Z</time>
      </trkpt>
      <trkpt lat="45.0843" lon="5.70351">
        <ele>265.46</ele>
        <time>2021-03-28T12:40:55Z</time>
      </trkpt>
      <trkpt lat="45.08424" lon="5.70369">
        <ele>265.94</ele>
        <time>2021-03-28T12:41:11Z</time>
      </trkpt>
      <trkpt lat="45.08415" lon="5.70392">
        <ele>265.94</ele>
        <time>2021-03-28T12:41:29Z</time>
      </trkpt>
      <trkpt lat="45.08411" lon="5.70402">
        <ele>266.9</ele>
        <time>2021-03-28T12:41:49Z</time>
      </trkpt>
      <trkpt lat="45.08408" lon="5.70414">
        <ele>265.46</ele>
        <time>2021-03-28T12:42:14Z</time>
      </trkpt>
      <trkpt lat="45.08404" lon="5.70433">
        <ele>266.9</ele>
        <time>2021-03-28T12:42:30Z</time>
      </trkpt>
      <trkpt lat="45.08399" lon="5.70453">
        <ele>266.9</ele>
        <time>2021-03-28T12:42:46Z</time>
      </trkpt>
      <trkpt lat="45.08393" lon="5.7047">
        <ele>264.5</ele>
        <time>2021-03-28T12:43:00Z</time>
      </trkpt>
      <trkpt lat="45.08393" lon="5.70478">
        <ele>265.46</ele>
        <time>2021-03-28T12:43:17Z</time>
      </trkpt>
      <trkpt lat="45.08394" lon="5.70493">
        <ele>264.5</ele>
        <time>2021-03-28T12:43:33Z</time>
      </trkpt>
      <trkpt lat="45.08394" lon="5.705">
        <ele>262.58</ele>
        <time>2021-03-28T12:43:50Z</time>
      </trkpt>
      <trkpt lat="45.08395" lon="5.705">
        <ele>262.58</ele>
        <time>2021-03-28T12:44:19Z</time>
      </trkpt>
      <trkpt lat="45.08395" lon="5.70516">
        <ele>262.1</ele>
        <time>2021-03-28T12:44:39Z</time>
      </trkpt>
      <trkpt lat="45.08395" lon="5.70537">
        <ele>262.1</ele>
        <time>2021-03-28T12:44:56Z</time>
      </trkpt>
      <trkpt lat="45.08396" lon="5.70557">
        <ele>261.62</ele>
        <time>2021-03-28T12:45:09Z</time>
      </trkpt>
      <trkpt lat="45.08392" lon="5.70577">
        <ele>259.21</ele>
        <time>2021-03-28T12:45:23Z</time>
      </trkpt>
      <trkpt lat="45.08392" lon="5.70587">
        <ele>258.25</ele>
        <time>2021-03-28T12:45:30Z</time>
      </trkpt>
      <trkpt lat="45.0839" lon="5.70612">
        <ele>257.77</ele>
        <time>2021-03-28T12:45:47Z</time>
      </trkpt>
      <trkpt lat="45.08389" lon="5.70624">
        <ele>254.89</ele>
        <time>2021-03-28T12:46:02Z</time>
      </trkpt>
      <trkpt lat="45.08391" lon="5.70646">
        <ele>258.25</ele>
        <time>2021-03-28T12:46:16Z</time>
      </trkpt>
      <trkpt lat="45.08391" lon="5.70666">
        <ele>256.33</ele>
        <time>2021-03-28T12:46:31Z</time>
      </trkpt>
      <trkpt lat="45.08388" lon="5.70687">
        <ele>252.96</ele>
        <time>2021-03-28T12:46:47Z</time>
      </trkpt>
      <trkpt lat="45.08386" lon="5.70709">
        <ele>251.52</ele>
        <time>2021-03-28T12:47:02Z</time>
      </trkpt>
      <trkpt lat="45.08391" lon="5.70738">
        <ele>262.58</ele>
        <time>2021-03-28T12:47:17Z</time>
      </trkpt>
      <trkpt lat="45.08391" lon="5.70764">
        <ele>264.02</ele>
        <time>2021-03-28T12:47:36Z</time>
      </trkpt>
      <trkpt lat="45.08391" lon="5.70767">
        <ele>263.54</ele>
        <time>2021-03-28T12:47:38Z</time>
      </trkpt>
      <trkpt lat="45.0839" lon="5.70786">
        <ele>261.62</ele>
        <time>2021-03-28T12:47:52Z</time>
      </trkpt>
      <trkpt lat="45.08389" lon="5.70804">
        <ele>261.14</ele>
        <time>2021-03-28T12:48:07Z</time>
      </trkpt>
      <trkpt lat="45.08388" lon="5.70821">
        <ele>261.14</ele>
        <time>2021-03-28T12:48:23Z</time>
      </trkpt>
      <trkpt lat="45.08384" lon="5.70842">
        <ele>261.14</ele>
        <time>2021-03-28T12:48:39Z</time>
      </trkpt>
      <trkpt lat="45.08378" lon="5.70859">
        <ele>261.14</ele>
        <time>2021-03-28T12:48:53Z</time>
      </trkpt>
      <trkpt lat="45.0837" lon="5.70876">
        <ele>261.14</ele>
        <time>2021-03-28T12:49:09Z</time>
      </trkpt>
      <trkpt lat="45.08361" lon="5.70891">
        <ele>261.62</ele>
        <time>2021-03-28T12:49:25Z</time>
      </trkpt>
      <trkpt lat="45.08353" lon="5.70903">
        <ele>262.58</ele>
        <time>2021-03-28T12:49:40Z</time>
      </trkpt>
      <trkpt lat="45.08343" lon="5.70918">
        <ele>264.5</ele>
        <time>2021-03-28T12:49:56Z</time>
      </trkpt>
      <trkpt lat="45.08327" lon="5.70944">
        <ele>267.86</ele>
        <time>2021-03-28T12:50:13Z</time>
      </trkpt>
      <trkpt lat="45.08319" lon="5.70961">
        <ele>267.38</ele>
        <time>2021-03-28T12:50:30Z</time>
      </trkpt>
      <trkpt lat="45.08309" lon="5.70979">
        <ele>264.98</ele>
        <time>2021-03-28T12:50:47Z</time>
      </trkpt>
      <trkpt lat="45.08301" lon="5.70991">
        <ele>264.02</ele>
        <time>2021-03-28T12:51:03Z</time>
      </trkpt>
      <trkpt lat="45.08296" lon="5.71011">
        <ele>258.73</ele>
        <time>2021-03-28T12:51:17Z</time>
      </trkpt>
      <trkpt lat="45.08295" lon="5.71027">
        <ele>253.44</ele>
        <time>2021-03-28T12:51:30Z</time>
      </trkpt>
      <trkpt lat="45.08303" lon="5.71027">
        <ele>250.56</ele>
        <time>2021-03-28T12:51:44Z</time>
      </trkpt>
      <trkpt lat="45.08303" lon="5.71006">
        <ele>250.56</ele>
        <time>2021-03-28T12:52:00Z</time>
      </trkpt>
      <trkpt lat="45.08306" lon="5.70992">
        <ele>253.93</ele>
        <time>2021-03-28T12:52:13Z</time>
      </trkpt>
      <trkpt lat="45.08319" lon="5.70973">
        <ele>258.73</ele>
        <time>2021-03-28T12:52:31Z</time>
      </trkpt>
      <trkpt lat="45.08325" lon="5.70961">
        <ele>262.58</ele>
        <time>2021-03-28T12:52:44Z</time>
      </trkpt>
      <trkpt lat="45.08335" lon="5.70945">
        <ele>268.83</ele>
        <time>2021-03-28T12:53:01Z</time>
      </trkpt>
      <trkpt lat="45.08348" lon="5.70926">
        <ele>267.86</ele>
        <time>2021-03-28T12:53:19Z</time>
      </trkpt>
      <trkpt lat="45.08358" lon="5.70912">
        <ele>271.23</ele>
        <time>2021-03-28T12:53:34Z</time>
      </trkpt>
      <trkpt lat="45.0836" lon="5.70911">
        <ele>274.11</ele>
        <time>2021-03-28T12:53:51Z</time>
      </trkpt>
      <trkpt lat="45.0836" lon="5.70904">
        <ele>276.04</ele>
        <time>2021-03-28T12:54:17Z</time>
      </trkpt>
      <trkpt lat="45.08363" lon="5.70893">
        <ele>277.96</ele>
        <time>2021-03-28T12:54:34Z</time>
      </trkpt>
      <trkpt lat="45.08363" lon="5.70888">
        <ele>277.96</ele>
        <time>2021-03-28T12:55:12Z</time>
      </trkpt>
      <trkpt lat="45.08362" lon="5.70886">
        <ele>276.52</ele>
        <time>2021-03-28T12:55:45Z</time>
      </trkpt>
      <trkpt lat="45.08361" lon="5.70885">
        <ele>274.59</ele>
        <time>2021-03-28T12:56:10Z</time>
      </trkpt>
      <trkpt lat="45.08357" lon="5.70882">
        <ele>274.59</ele>
        <time>2021-03-28T12:56:27Z</time>
      </trkpt>
      <trkpt lat="45.08344" lon="5.7089">
        <ele>270.27</ele>
        <time>2021-03-28T12:56:46Z</time>
      </trkpt>
      <trkpt lat="45.08331" lon="5.70895">
        <ele>268.35</ele>
        <time>2021-03-28T12:57:01Z</time>
      </trkpt>
      <trkpt lat="45.08317" lon="5.70896">
        <ele>268.35</ele>
        <time>2021-03-28T12:57:16Z</time>
      </trkpt>
      <trkpt lat="45.08305" lon="5.70898">
        <ele>265.46</ele>
        <time>2021-03-28T12:57:30Z</time>
      </trkpt>
      <trkpt lat="45.08295" lon="5.70896">
        <ele>262.1</ele>
        <time>2021-03-28T12:57:43Z</time>
      </trkpt>
      <trkpt lat="45.08287" lon="5.70894">
        <ele>259.69</ele>
        <time>2021-03-28T12:57:55Z</time>
      </trkpt>
      <trkpt lat="45.08277" lon="5.70889">
        <ele>259.21</ele>
        <time>2021-03-28T12:58:09Z</time>
      </trkpt>
      <trkpt lat="45.08261" lon="5.70887">
        <ele>260.17</ele>
        <time>2021-03-28T12:58:23Z</time>
      </trkpt>
      <trkpt lat="45.08248" lon="5.70875">
        <ele>262.1</ele>
        <time>2021-03-28T12:58:38Z</time>
      </trkpt>
      <trkpt lat="45.08237" lon="5.7088">
        <ele>263.54</ele>
        <time>2021-03-28T12:58:52Z</time>
      </trkpt>
      <trkpt lat="45.08238" lon="5.70879">
        <ele>263.54</ele>
        <time>2021-03-28T12:59:08Z</time>
      </trkpt>
      <trkpt lat="45.08251" lon="5.70878">
        <ele>264.5</ele>
        <time>2021-03-28T12:59:26Z</time>
      </trkpt>
      <trkpt lat="45.08264" lon="5.70884">
        <ele>266.42</ele>
        <time>2021-03-28T12:59:40Z</time>
      </trkpt>
      <trkpt lat="45.0828" lon="5.7089">
        <ele>267.38</ele>
        <time>2021-03-28T12:59:54Z</time>
      </trkpt>
      <trkpt lat="45.08295" lon="5.70897">
        <ele>268.83</ele>
        <time>2021-03-28T13:00:10Z</time>
      </trkpt>
      <trkpt lat="45.08308" lon="5.70896">
        <ele>268.83</ele>
        <time>2021-03-28T13:00:23Z</time>
      </trkpt>
      <trkpt lat="45.08312" lon="5.70896">
        <ele>268.35</ele>
        <time>2021-03-28T13:00:26Z</time>
      </trkpt>
      <trkpt lat="45.08325" lon="5.70894">
        <ele>269.31</ele>
        <time>2021-03-28T13:00:39Z</time>
      </trkpt>
      <trkpt lat="45.08342" lon="5.7089">
        <ele>272.19</ele>
        <time>2021-03-28T13:00:53Z</time>
      </trkpt>
      <trkpt lat="45.08355" lon="5.70888">
        <ele>271.23</ele>
        <time>2021-03-28T13:01:07Z</time>
      </trkpt>
      <trkpt lat="45.08365" lon="5.70884">
        <ele>269.31</ele>
        <time>2021-03-28T13:01:21Z</time>
      </trkpt>
      <trkpt lat="45.08376" lon="5.70869">
        <ele>268.35</ele>
        <time>2021-03-28T13:01:36Z</time>
      </trkpt>
      <trkpt lat="45.08382" lon="5.70858">
        <ele>267.86</ele>
        <time>2021-03-28T13:01:45Z</time>
      </trkpt>
      <trkpt lat="45.08385" lon="5.70844">
        <ele>267.86</ele>
        <time>2021-03-28T13:01:58Z</time>
      </trkpt>
      <trkpt lat="45.08386" lon="5.7083">
        <ele>266.42</ele>
        <time>2021-03-28T13:02:10Z</time>
      </trkpt>
      <trkpt lat="45.08385" lon="5.70808">
        <ele>264.5</ele>
        <time>2021-03-28T13:02:28Z</time>
      </trkpt>
      <trkpt lat="45.08389" lon="5.7078">
        <ele>265.46</ele>
        <time>2021-03-28T13:02:45Z</time>
      </trkpt>
      <trkpt lat="45.08389" lon="5.7076">
        <ele>271.71</ele>
        <time>2021-03-28T13:03:00Z</time>
      </trkpt>
      <trkpt lat="45.08389" lon="5.70743">
        <ele>271.23</ele>
        <time>2021-03-28T13:03:16Z</time>
      </trkpt>
      <trkpt lat="45.08389" lon="5.70723">
        <ele>269.79</ele>
        <time>2021-03-28T13:03:34Z</time>
      </trkpt>
      <trkpt lat="45.08391" lon="5.70703">
        <ele>267.38</ele>
        <time>2021-03-28T13:03:50Z</time>
      </trkpt>
      <trkpt lat="45.08391" lon="5.70686">
        <ele>267.38</ele>
        <time>2021-03-28T13:04:05Z</time>
      </trkpt>
      <trkpt lat="45.08391" lon="5.70667">
        <ele>265.94</ele>
        <time>2021-03-28T13:04:21Z</time>
      </trkpt>
      <trkpt lat="45.08394" lon="5.70648">
        <ele>266.42</ele>
        <time>2021-03-28T13:04:35Z</time>
      </trkpt>
      <trkpt lat="45.08392" lon="5.70628">
        <ele>268.35</ele>
        <time>2021-03-28T13:04:50Z</time>
      </trkpt>
      <trkpt lat="45.08392" lon="5.70617">
        <ele>268.35</ele>
        <time>2021-03-28T13:05:03Z</time>
      </trkpt>
      <trkpt lat="45.08394" lon="5.70591">
        <ele>268.35</ele>
        <time>2021-03-28T13:05:22Z</time>
      </trkpt>
      <trkpt lat="45.08395" lon="5.70567">
        <ele>267.86</ele>
        <time>2021-03-28T13:05:40Z</time>
      </trkpt>
      <trkpt lat="45.08395" lon="5.70552">
        <ele>268.83</ele>
        <time>2021-03-28T13:05:58Z</time>
      </trkpt>
      <trkpt lat="45.08394" lon="5.70555">
        <ele>271.23</ele>
        <time>2021-03-28T13:06:35Z</time>
      </trkpt>
      <trkpt lat="45.08396" lon="5.70549">
        <ele>270.75</ele>
        <time>2021-03-28T13:06:39Z</time>
      </trkpt>
      <trkpt lat="45.08397" lon="5.70525">
        <ele>270.27</ele>
        <time>2021-03-28T13:06:54Z</time>
      </trkpt>
      <trkpt lat="45.08398" lon="5.70501">
        <ele>268.83</ele>
        <time>2021-03-28T13:07:09Z</time>
      </trkpt>
      <trkpt lat="45.08398" lon="5.70488">
        <ele>267.86</ele>
        <time>2021-03-28T13:07:24Z</time>
      </trkpt>
      <trkpt lat="45.08397" lon="5.70489">
        <ele>268.35</ele>
        <time>2021-03-28T13:07:54Z</time>
      </trkpt>
      <trkpt lat="45.08397" lon="5.7048">
        <ele>266.9</ele>
        <time>2021-03-28T13:08:13Z</time>
      </trkpt>
      <trkpt lat="45.08401" lon="5.70479">
        <ele>266.9</ele>
        <time>2021-03-28T13:08:24Z</time>
      </trkpt>
      <trkpt lat="45.08401" lon="5.70479">
        <ele>266.9</ele>
        <time>2021-03-28T13:08:25Z</time>
      </trkpt>
      <trkpt lat="45.08414" lon="5.70492">
        <ele>267.86</ele>
        <time>2021-03-28T13:08:42Z</time>
      </trkpt>
      <trkpt lat="45.08414" lon="5.70494">
        <ele>268.83</ele>
        <time>2021-03-28T13:09:00Z</time>
      </trkpt>
      <trkpt lat="45.08422" lon="5.705">
        <ele>268.35</ele>
        <time>2021-03-28T13:09:19Z</time>
      </trkpt>
      <trkpt lat="45.08435" lon="5.70511">
        <ele>268.35</ele>
        <time>2021-03-28T13:09:36Z</time>
      </trkpt>
      <trkpt lat="45.08447" lon="5.70523">
        <ele>267.86</ele>
        <time>2021-03-28T13:09:53Z</time>
      </trkpt>
      <trkpt lat="45.08453" lon="5.70527">
        <ele>267.86</ele>
        <time>2021-03-28T13:10:01Z</time>
      </trkpt>
      <trkpt lat="45.08465" lon="5.70536">
        <ele>266.9</ele>
        <time>2021-03-28T13:10:16Z</time>
      </trkpt>
      <trkpt lat="45.08479" lon="5.70545">
        <ele>268.35</ele>
        <time>2021-03-28T13:10:32Z</time>
      </trkpt>
      <trkpt lat="45.08489" lon="5.70551">
        <ele>267.38</ele>
        <time>2021-03-28T13:10:45Z</time>
      </trkpt>
      <trkpt lat="45.08496" lon="5.70557">
        <ele>267.86</ele>
        <time>2021-03-28T13:10:53Z</time>
      </trkpt>
      <trkpt lat="45.08509" lon="5.70568">
        <ele>270.27</ele>
        <time>2021-03-28T13:11:07Z</time>
      </trkpt>
      <trkpt lat="45.08521" lon="5.70584">
        <ele>270.75</ele>
        <time>2021-03-28T13:11:24Z</time>
      </trkpt>
      <trkpt lat="45.08529" lon="5.70597">
        <ele>270.27</ele>
        <time>2021-03-28T13:11:39Z</time>
      </trkpt>
      <trkpt lat="45.08532" lon="5.70603">
        <ele>269.31</ele>
        <time>2021-03-28T13:11:51Z</time>
      </trkpt>
      <trkpt lat="45.08542" lon="5.70617">
        <ele>269.31</ele>
        <time>2021-03-28T13:12:05Z</time>
      </trkpt>
      <trkpt lat="45.08552" lon="5.70631">
        <ele>268.35</ele>
        <time>2021-03-28T13:12:20Z</time>
      </trkpt>
      <trkpt lat="45.08561" lon="5.70641">
        <ele>268.83</ele>
        <time>2021-03-28T13:12:34Z</time>
      </trkpt>
      <trkpt lat="45.0857" lon="5.7065">
        <ele>269.79</ele>
        <time>2021-03-28T13:12:49Z</time>
      </trkpt>
      <trkpt lat="45.0858" lon="5.70661">
        <ele>269.31</ele>
        <time>2021-03-28T13:13:03Z</time>
      </trkpt>
      <trkpt lat="45.08594" lon="5.70673">
        <ele>268.35</ele>
        <time>2021-03-28T13:13:20Z</time>
      </trkpt>
      <trkpt lat="45.08606" lon="5.70686">
        <ele>268.83</ele>
        <time>2021-03-28T13:13:36Z</time>
      </trkpt>
      <trkpt lat="45.08617" lon="5.707">
        <ele>268.35</ele>
        <time>2021-03-28T13:13:52Z</time>
      </trkpt>
      <trkpt lat="45.08628" lon="5.70712">
        <ele>267.86</ele>
        <time>2021-03-28T13:14:07Z</time>
      </trkpt>
      <trkpt lat="45.08636" lon="5.70719">
        <ele>267.86</ele>
        <time>2021-03-28T13:14:17Z</time>
      </trkpt>
      <trkpt lat="45.08639" lon="5.70721">
        <ele>267.86</ele>
        <time>2021-03-28T13:14:20Z</time>
      </trkpt>
      <trkpt lat="45.08651" lon="5.70732">
        <ele>267.38</ele>
        <time>2021-03-28T13:14:36Z</time>
      </trkpt>
      <trkpt lat="45.08665" lon="5.70741">
        <ele>266.42</ele>
        <time>2021-03-28T13:14:52Z</time>
      </trkpt>
      <trkpt lat="45.08679" lon="5.70751">
        <ele>268.35</ele>
        <time>2021-03-28T13:15:08Z</time>
      </trkpt>
      <trkpt lat="45.08692" lon="5.70759">
        <ele>267.86</ele>
        <time>2021-03-28T13:15:23Z</time>
      </trkpt>
      <trkpt lat="45.08697" lon="5.70763">
        <ele>267.86</ele>
        <time>2021-03-28T13:15:29Z</time>
      </trkpt>
      <trkpt lat="45.08711" lon="5.70773">
        <ele>268.35</ele>
        <time>2021-03-28T13:15:44Z</time>
      </trkpt>
      <trkpt lat="45.08715" lon="5.70776">
        <ele>267.86</ele>
        <time>2021-03-28T13:15:48Z</time>
      </trkpt>
      <trkpt lat="45.08718" lon="5.70779">
        <ele>267.86</ele>
        <time>2021-03-28T13:15:52Z</time>
      </trkpt>
      <trkpt lat="45.08722" lon="5.70781">
        <ele>267.86</ele>
        <time>2021-03-28T13:15:56Z</time>
      </trkpt>
      <trkpt lat="45.08733" lon="5.70791">
        <ele>267.86</ele>
        <time>2021-03-28T13:16:11Z</time>
      </trkpt>
      <trkpt lat="45.0874" lon="5.70806">
        <ele>267.86</ele>
        <time>2021-03-28T13:16:26Z</time>
      </trkpt>
      <trkpt lat="45.08742" lon="5.7083">
        <ele>266.9</ele>
        <time>2021-03-28T13:16:44Z</time>
      </trkpt>
      <trkpt lat="45.08748" lon="5.70851">
        <ele>265.46</ele>
        <time>2021-03-28T13:17:01Z</time>
      </trkpt>
      <trkpt lat="45.08752" lon="5.7086">
        <ele>263.54</ele>
        <time>2021-03-28T13:17:10Z</time>
      </trkpt>
      <trkpt lat="45.08756" lon="5.70875">
        <ele>262.58</ele>
        <time>2021-03-28T13:17:29Z</time>
      </trkpt>
      <trkpt lat="45.08755" lon="5.70886">
        <ele>260.65</ele>
        <time>2021-03-28T13:17:44Z</time>
      </trkpt>
      <trkpt lat="45.08751" lon="5.70907">
        <ele>260.17</ele>
        <time>2021-03-28T13:18:00Z</time>
      </trkpt>
      <trkpt lat="45.08752" lon="5.7093">
        <ele>259.69</ele>
        <time>2021-03-28T13:18:17Z</time>
      </trkpt>
      <trkpt lat="45.08749" lon="5.70949">
        <ele>263.54</ele>
        <time>2021-03-28T13:18:33Z</time>
      </trkpt>
      <trkpt lat="45.08747" lon="5.70967">
        <ele>263.54</ele>
        <time>2021-03-28T13:18:47Z</time>
      </trkpt>
      <trkpt lat="45.08745" lon="5.70992">
        <ele>264.5</ele>
        <time>2021-03-28T13:19:04Z</time>
      </trkpt>
      <trkpt lat="45.08742" lon="5.71013">
        <ele>264.02</ele>
        <time>2021-03-28T13:19:20Z</time>
      </trkpt>
      <trkpt lat="45.0874" lon="5.71034">
        <ele>262.1</ele>
        <time>2021-03-28T13:19:36Z</time>
      </trkpt>
      <trkpt lat="45.08738" lon="5.71057">
        <ele>261.14</ele>
        <time>2021-03-28T13:19:54Z</time>
      </trkpt>
      <trkpt lat="45.08737" lon="5.71062">
        <ele>260.17</ele>
        <time>2021-03-28T13:19:58Z</time>
      </trkpt>
      <trkpt lat="45.08737" lon="5.71068">
        <ele>259.69</ele>
        <time>2021-03-28T13:20:02Z</time>
      </trkpt>
      <trkpt lat="45.08735" lon="5.71087">
        <ele>258.25</ele>
        <time>2021-03-28T13:20:18Z</time>
      </trkpt>
      <trkpt lat="45.08734" lon="5.71106">
        <ele>257.77</ele>
        <time>2021-03-28T13:20:32Z</time>
      </trkpt>
      <trkpt lat="45.08733" lon="5.71125">
        <ele>259.69</ele>
        <time>2021-03-28T13:20:46Z</time>
      </trkpt>
      <trkpt lat="45.08731" lon="5.71143">
        <ele>260.65</ele>
        <time>2021-03-28T13:20:59Z</time>
      </trkpt>
      <trkpt lat="45.08732" lon="5.71153">
        <ele>261.62</ele>
        <time>2021-03-28T13:21:06Z</time>
      </trkpt>
      <trkpt lat="45.0873" lon="5.7117">
        <ele>261.14</ele>
        <time>2021-03-28T13:21:19Z</time>
      </trkpt>
      <trkpt lat="45.08731" lon="5.71192">
        <ele>261.62</ele>
        <time>2021-03-28T13:21:35Z</time>
      </trkpt>
      <trkpt lat="45.08731" lon="5.71196">
        <ele>261.62</ele>
        <time>2021-03-28T13:21:38Z</time>
      </trkpt>
      <trkpt lat="45.08732" lon="5.71218">
        <ele>264.98</ele>
        <time>2021-03-28T13:21:53Z</time>
      </trkpt>
      <trkpt lat="45.08732" lon="5.71228">
        <ele>264.5</ele>
        <time>2021-03-28T13:22:00Z</time>
      </trkpt>
      <trkpt lat="45.08733" lon="5.71237">
        <ele>264.02</ele>
        <time>2021-03-28T13:22:07Z</time>
      </trkpt>
      <trkpt lat="45.08734" lon="5.71253">
        <ele>264.5</ele>
        <time>2021-03-28T13:22:20Z</time>
      </trkpt>
      <trkpt lat="45.08733" lon="5.71268">
        <ele>263.06</ele>
        <time>2021-03-28T13:22:32Z</time>
      </trkpt>
      <trkpt lat="45.0873" lon="5.71282">
        <ele>261.14</ele>
        <time>2021-03-28T13:22:46Z</time>
      </trkpt>
      <trkpt lat="45.08727" lon="5.71301">
        <ele>260.17</ele>
        <time>2021-03-28T13:23:01Z</time>
      </trkpt>
      <trkpt lat="45.08734" lon="5.71321">
        <ele>262.58</ele>
        <time>2021-03-28T13:23:14Z</time>
      </trkpt>
      <trkpt lat="45.08735" lon="5.71323">
        <ele>262.58</ele>
        <time>2021-03-28T13:23:16Z</time>
      </trkpt>
      <trkpt lat="45.08744" lon="5.71332">
        <ele>263.06</ele>
        <time>2021-03-28T13:23:31Z</time>
      </trkpt>
      <trkpt lat="45.08754" lon="5.71339">
        <ele>263.54</ele>
        <time>2021-03-28T13:23:45Z</time>
      </trkpt>
      <trkpt lat="45.08767" lon="5.71348">
        <ele>263.06</ele>
        <time>2021-03-28T13:24:00Z</time>
      </trkpt>
      <trkpt lat="45.08769" lon="5.71349">
        <ele>263.06</ele>
        <time>2021-03-28T13:24:02Z</time>
      </trkpt>
      <trkpt lat="45.08775" lon="5.71353">
        <ele>262.58</ele>
        <time>2021-03-28T13:24:09Z</time>
      </trkpt>
      <trkpt lat="45.08777" lon="5.71354">
        <ele>262.58</ele>
        <time>2021-03-28T13:24:12Z</time>
      </trkpt>
      <trkpt lat="45.0878" lon="5.71356">
        <ele>262.58</ele>
        <time>2021-03-28T13:24:15Z</time>
      </trkpt>
      <trkpt lat="45.08782" lon="5.71357">
        <ele>262.1</ele>
        <time>2021-03-28T13:24:18Z</time>
      </trkpt>
      <trkpt lat="45.08795" lon="5.71366">
        <ele>261.14</ele>
        <time>2021-03-28T13:24:33Z</time>
      </trkpt>
      <trkpt lat="45.08804" lon="5.71371">
        <ele>261.62</ele>
        <time>2021-03-28T13:24:45Z</time>
      </trkpt>
      <trkpt lat="45.08815" lon="5.71378">
        <ele>260.65</ele>
        <time>2021-03-28T13:25:00Z</time>
      </trkpt>
      <trkpt lat="45.08825" lon="5.71386">
        <ele>261.62</ele>
        <time>2021-03-28T13:25:16Z</time>
      </trkpt>
      <trkpt lat="45.08831" lon="5.71387">
        <ele>264.98</ele>
        <time>2021-03-28T13:25:33Z</time>
      </trkpt>
      <trkpt lat="45.08835" lon="5.71393">
        <ele>263.54</ele>
        <time>2021-03-28T13:25:48Z</time>
      </trkpt>
      <trkpt lat="45.0884" lon="5.71394">
        <ele>263.54</ele>
        <time>2021-03-28T13:26:00Z</time>
      </trkpt>
      <trkpt lat="45.08844" lon="5.71395">
        <ele>264.02</ele>
        <time>2021-03-28T13:26:04Z</time>
      </trkpt>
      <trkpt lat="45.0885" lon="5.71399">
        <ele>264.02</ele>
        <time>2021-03-28T13:26:11Z</time>
      </trkpt>
      <trkpt lat="45.08861" lon="5.71406">
        <ele>264.5</ele>
        <time>2021-03-28T13:26:23Z</time>
      </trkpt>
      <trkpt lat="45.08871" lon="5.71413">
        <ele>264.98</ele>
        <time>2021-03-28T13:26:34Z</time>
      </trkpt>
      <trkpt lat="45.08878" lon="5.71417">
        <ele>263.54</ele>
        <time>2021-03-28T13:26:41Z</time>
      </trkpt>
      <trkpt lat="45.08888" lon="5.71424">
        <ele>264.02</ele>
        <time>2021-03-28T13:26:52Z</time>
      </trkpt>
      <trkpt lat="45.0889" lon="5.71426">
        <ele>264.02</ele>
        <time>2021-03-28T13:26:55Z</time>
      </trkpt>
      <trkpt lat="45.08903" lon="5.71434">
        <ele>263.06</ele>
        <time>2021-03-28T13:27:11Z</time>
      </trkpt>
      <trkpt lat="45.08912" lon="5.71432">
        <ele>262.1</ele>
        <time>2021-03-28T13:27:26Z</time>
      </trkpt>
      <trkpt lat="45.08914" lon="5.71412">
        <ele>260.17</ele>
        <time>2021-03-28T13:27:42Z</time>
      </trkpt>
      <trkpt lat="45.08915" lon="5.71403">
        <ele>259.69</ele>
        <time>2021-03-28T13:27:49Z</time>
      </trkpt>
      <trkpt lat="45.08916" lon="5.71401">
        <ele>259.69</ele>
        <time>2021-03-28T13:27:51Z</time>
      </trkpt>
      <trkpt lat="45.08917" lon="5.71394">
        <ele>260.17</ele>
        <time>2021-03-28T13:27:56Z</time>
      </trkpt>
      <trkpt lat="45.08927" lon="5.71382">
        <ele>262.1</ele>
        <time>2021-03-28T13:28:12Z</time>
      </trkpt>
      <trkpt lat="45.08942" lon="5.71381">
        <ele>261.62</ele>
        <time>2021-03-28T13:28:28Z</time>
      </trkpt>
      <trkpt lat="45.08957" lon="5.71381">
        <ele>261.14</ele>
        <time>2021-03-28T13:28:45Z</time>
      </trkpt>
      <trkpt lat="45.08969" lon="5.71378">
        <ele>260.65</ele>
        <time>2021-03-28T13:29:00Z</time>
      </trkpt>
      <trkpt lat="45.08981" lon="5.71369">
        <ele>260.17</ele>
        <time>2021-03-28T13:29:16Z</time>
      </trkpt>
      <trkpt lat="45.08989" lon="5.71359">
        <ele>260.17</ele>
        <time>2021-03-28T13:29:29Z</time>
      </trkpt>
      <trkpt lat="45.08993" lon="5.71357">
        <ele>260.17</ele>
        <time>2021-03-28T13:29:43Z</time>
      </trkpt>
      <trkpt lat="45.09" lon="5.71347">
        <ele>259.21</ele>
        <time>2021-03-28T13:29:57Z</time>
      </trkpt>
      <trkpt lat="45.09006" lon="5.71332">
        <ele>258.25</ele>
        <time>2021-03-28T13:30:12Z</time>
      </trkpt>
      <trkpt lat="45.09006" lon="5.71329">
        <ele>258.25</ele>
        <time>2021-03-28T13:30:14Z</time>
      </trkpt>
      <trkpt lat="45.09004" lon="5.71311">
        <ele>260.17</ele>
        <time>2021-03-28T13:30:30Z</time>
      </trkpt>
      <trkpt lat="45.08992" lon="5.71296">
        <ele>256.33</ele>
        <time>2021-03-28T13:30:49Z</time>
      </trkpt>
      <trkpt lat="45.08982" lon="5.71285">
        <ele>256.33</ele>
        <time>2021-03-28T13:31:04Z</time>
      </trkpt>
      <trkpt lat="45.08969" lon="5.71269">
        <ele>260.17</ele>
        <time>2021-03-28T13:31:22Z</time>
      </trkpt>
      <trkpt lat="45.08967" lon="5.7125">
        <ele>259.21</ele>
        <time>2021-03-28T13:31:39Z</time>
      </trkpt>
      <trkpt lat="45.08965" lon="5.71232">
        <ele>259.21</ele>
        <time>2021-03-28T13:31:55Z</time>
      </trkpt>
      <trkpt lat="45.08961" lon="5.71212">
        <ele>261.14</ele>
        <time>2021-03-28T13:32:11Z</time>
      </trkpt>
      <trkpt lat="45.08952" lon="5.71201">
        <ele>261.14</ele>
        <time>2021-03-28T13:32:28Z</time>
      </trkpt>
      <trkpt lat="45.08951" lon="5.712">
        <ele>261.14</ele>
        <time>2021-03-28T13:32:29Z</time>
      </trkpt>
      <trkpt lat="45.08944" lon="5.71191">
        <ele>259.69</ele>
        <time>2021-03-28T13:32:39Z</time>
      </trkpt>
      <trkpt lat="45.08936" lon="5.71182">
        <ele>259.69</ele>
        <time>2021-03-28T13:32:53Z</time>
      </trkpt>
      <trkpt lat="45.08922" lon="5.71177">
        <ele>259.69</ele>
        <time>2021-03-28T13:33:09Z</time>
      </trkpt>
      <trkpt lat="45.08906" lon="5.71167">
        <ele>263.06</ele>
        <time>2021-03-28T13:33:26Z</time>
      </trkpt>
      <trkpt lat="45.08892" lon="5.71158">
        <ele>262.1</ele>
        <time>2021-03-28T13:33:43Z</time>
      </trkpt>
      <trkpt lat="45.08886" lon="5.71143">
        <ele>262.1</ele>
        <time>2021-03-28T13:34:01Z</time>
      </trkpt>
      <trkpt lat="45.08879" lon="5.71129">
        <ele>262.58</ele>
        <time>2021-03-28T13:34:19Z</time>
      </trkpt>
      <trkpt lat="45.08866" lon="5.71113">
        <ele>263.06</ele>
        <time>2021-03-28T13:34:35Z</time>
      </trkpt>
      <trkpt lat="45.08857" lon="5.71108">
        <ele>264.02</ele>
        <time>2021-03-28T13:34:45Z</time>
      </trkpt>
      <trkpt lat="45.08844" lon="5.71102">
        <ele>263.06</ele>
        <time>2021-03-28T13:35:02Z</time>
      </trkpt>
      <trkpt lat="45.08832" lon="5.71096">
        <ele>260.65</ele>
        <time>2021-03-28T13:35:18Z</time>
      </trkpt>
      <trkpt lat="45.08823" lon="5.71097">
        <ele>261.62</ele>
        <time>2021-03-28T13:35:34Z</time>
      </trkpt>
      <trkpt lat="45.08824" lon="5.71103">
        <ele>259.69</ele>
        <time>2021-03-28T13:35:48Z</time>
      </trkpt>
      <trkpt lat="45.08825" lon="5.71098">
        <ele>262.58</ele>
        <time>2021-03-28T13:36:17Z</time>
      </trkpt>
      <trkpt lat="45.08834" lon="5.71104">
        <ele>267.86</ele>
        <time>2021-03-28T13:36:47Z</time>
      </trkpt>
      <trkpt lat="45.08837" lon="5.71107">
        <ele>270.27</ele>
        <time>2021-03-28T13:37:24Z</time>
      </trkpt>
      <trkpt lat="45.08834" lon="5.711">
        <ele>272.19</ele>
        <time>2021-03-28T13:37:51Z</time>
      </trkpt>
      <trkpt lat="45.08829" lon="5.71099">
        <ele>272.19</ele>
        <time>2021-03-28T13:38:27Z</time>
      </trkpt>
      <trkpt lat="45.08835" lon="5.71106">
        <ele>271.71</ele>
        <time>2021-03-28T13:39:00Z</time>
      </trkpt>
      <trkpt lat="45.08829" lon="5.71107">
        <ele>270.75</ele>
        <time>2021-03-28T13:39:29Z</time>
      </trkpt>
      <trkpt lat="45.08822" lon="5.71108">
        <ele>271.23</ele>
        <time>2021-03-28T13:39:59Z</time>
      </trkpt>
      <trkpt lat="45.08826" lon="5.71098">
        <ele>272.67</ele>
        <time>2021-03-28T13:40:27Z</time>
      </trkpt>
      <trkpt lat="45.0883" lon="5.71113">
        <ele>275.07</ele>
        <time>2021-03-28T13:40:51Z</time>
      </trkpt>
      <trkpt lat="45.08825" lon="5.7112">
        <ele>278.92</ele>
        <time>2021-03-28T13:41:19Z</time>
      </trkpt>
      <trkpt lat="45.08827" lon="5.71115">
        <ele>281.32</ele>
        <time>2021-03-28T13:41:49Z</time>
      </trkpt>
      <trkpt lat="45.08826" lon="5.71102">
        <ele>277.96</ele>
        <time>2021-03-28T13:42:14Z</time>
      </trkpt>
      <trkpt lat="45.08823" lon="5.71105">
        <ele>280.36</ele>
        <time>2021-03-28T13:42:40Z</time>
      </trkpt>
      <trkpt lat="45.08823" lon="5.71101">
        <ele>275.56</ele>
        <time>2021-03-28T13:43:09Z</time>
      </trkpt>
      <trkpt lat="45.08826" lon="5.71106">
        <ele>276.52</ele>
        <time>2021-03-28T13:43:40Z</time>
      </trkpt>
      <trkpt lat="45.08826" lon="5.71103">
        <ele>278.92</ele>
        <time>2021-03-28T13:44:10Z</time>
      </trkpt>
      <trkpt lat="45.08821" lon="5.71108">
        <ele>278.44</ele>
        <time>2021-03-28T13:44:38Z</time>
      </trkpt>
      <trkpt lat="45.08829" lon="5.71102">
        <ele>277.96</ele>
        <time>2021-03-28T13:45:02Z</time>
      </trkpt>
      <trkpt lat="45.08829" lon="5.71112">
        <ele>272.67</ele>
        <time>2021-03-28T13:45:33Z</time>
      </trkpt>
      <trkpt lat="45.0883" lon="5.71112">
        <ele>267.38</ele>
        <time>2021-03-28T13:46:08Z</time>
      </trkpt>
      <trkpt lat="45.08829" lon="5.71106">
        <ele>269.31</ele>
        <time>2021-03-28T13:46:50Z</time>
      </trkpt>
      <trkpt lat="45.08827" lon="5.71114">
        <ele>269.79</ele>
        <time>2021-03-28T13:47:37Z</time>
      </trkpt>
      <trkpt lat="45.08828" lon="5.71117">
        <ele>269.79</ele>
        <time>2021-03-28T13:48:19Z</time>
      </trkpt>
      <trkpt lat="45.08832" lon="5.71118">
        <ele>269.31</ele>
        <time>2021-03-28T13:48:57Z</time>
      </trkpt>
      <trkpt lat="45.08832" lon="5.71112">
        <ele>268.35</ele>
        <time>2021-03-28T13:49:29Z</time>
      </trkpt>
      <trkpt lat="45.08833" lon="5.71114">
        <ele>267.86</ele>
        <time>2021-03-28T13:50:09Z</time>
      </trkpt>
      <trkpt lat="45.08825" lon="5.7111">
        <ele>265.94</ele>
        <time>2021-03-28T13:50:48Z</time>
      </trkpt>
      <trkpt lat="45.08831" lon="5.71104">
        <ele>264.02</ele>
        <time>2021-03-28T13:51:27Z</time>
      </trkpt>
      <trkpt lat="45.08833" lon="5.71105">
        <ele>267.38</ele>
        <time>2021-03-28T13:52:12Z</time>
      </trkpt>
      <trkpt lat="45.08838" lon="5.71102">
        <ele>270.75</ele>
        <time>2021-03-28T13:52:53Z</time>
      </trkpt>
      <trkpt lat="45.08827" lon="5.71095">
        <ele>267.86</ele>
        <time>2021-03-28T13:53:05Z</time>
      </trkpt>
      <trkpt lat="45.08821" lon="5.71096">
        <ele>265.46</ele>
        <time>2021-03-28T13:53:31Z</time>
      </trkpt>
      <trkpt lat="45.08825" lon="5.711">
        <ele>260.65</ele>
        <time>2021-03-28T13:53:57Z</time>
      </trkpt>
      <trkpt lat="45.08834" lon="5.71098">
        <ele>262.1</ele>
        <time>2021-03-28T13:54:29Z</time>
      </trkpt>
      <trkpt lat="45.08834" lon="5.71095">
        <ele>261.62</ele>
        <time>2021-03-28T13:55:04Z</time>
      </trkpt>
      <trkpt lat="45.08832" lon="5.71094">
        <ele>262.1</ele>
        <time>2021-03-28T13:55:35Z</time>
      </trkpt>
      <trkpt lat="45.08832" lon="5.71093">
        <ele>264.98</ele>
        <time>2021-03-28T13:56:02Z</time>
      </trkpt>
      <trkpt lat="45.08836" lon="5.71096">
        <ele>264.5</ele>
        <time>2021-03-28T13:56:33Z</time>
      </trkpt>
      <trkpt lat="45.08838" lon="5.71097">
        <ele>263.54</ele>
        <time>2021-03-28T13:56:58Z</time>
      </trkpt>
      <trkpt lat="45.08835" lon="5.71102">
        <ele>272.67</ele>
        <time>2021-03-28T13:57:31Z</time>
      </trkpt>
      <trkpt lat="45.0883" lon="5.71104">
        <ele>277.96</ele>
        <time>2021-03-28T13:58:04Z</time>
      </trkpt>
      <trkpt lat="45.08831" lon="5.71101">
        <ele>277</ele>
        <time>2021-03-28T13:58:35Z</time>
      </trkpt>
      <trkpt lat="45.08833" lon="5.71102">
        <ele>277</ele>
        <time>2021-03-28T13:59:11Z</time>
      </trkpt>
      <trkpt lat="45.08831" lon="5.71101">
        <ele>277.48</ele>
        <time>2021-03-28T13:59:47Z</time>
      </trkpt>
      <trkpt lat="45.08835" lon="5.71101">
        <ele>281.32</ele>
        <time>2021-03-28T14:00:20Z</time>
      </trkpt>
      <trkpt lat="45.08832" lon="5.711">
        <ele>278.44</ele>
        <time>2021-03-28T14:00:57Z</time>
      </trkpt>
      <trkpt lat="45.08832" lon="5.71097">
        <ele>276.04</ele>
        <time>2021-03-28T14:01:30Z</time>
      </trkpt>
      <trkpt lat="45.08828" lon="5.71096">
        <ele>274.11</ele>
        <time>2021-03-28T14:02:04Z</time>
      </trkpt>
      <trkpt lat="45.08831" lon="5.71094">
        <ele>273.15</ele>
        <time>2021-03-28T14:02:35Z</time>
      </trkpt>
      <trkpt lat="45.08828" lon="5.71093">
        <ele>271.71</ele>
        <time>2021-03-28T14:02:58Z</time>
      </trkpt>
      <trkpt lat="45.08823" lon="5.71092">
        <ele>276.04</ele>
        <time>2021-03-28T14:03:19Z</time>
      </trkpt>
      <trkpt lat="45.08817" lon="5.7109">
        <ele>279.88</ele>
        <time>2021-03-28T14:03:52Z</time>
      </trkpt>
      <trkpt lat="45.08819" lon="5.71091">
        <ele>277</ele>
        <time>2021-03-28T14:04:23Z</time>
      </trkpt>
      <trkpt lat="45.08819" lon="5.71085">
        <ele>273.63</ele>
        <time>2021-03-28T14:04:49Z</time>
      </trkpt>
      <trkpt lat="45.08818" lon="5.71084">
        <ele>272.19</ele>
        <time>2021-03-28T14:05:18Z</time>
      </trkpt>
      <trkpt lat="45.08822" lon="5.71083">
        <ele>268.35</ele>
        <time>2021-03-28T14:05:57Z</time>
      </trkpt>
      <trkpt lat="45.08825" lon="5.71083">
        <ele>267.86</ele>
        <time>2021-03-28T14:06:31Z</time>
      </trkpt>
      <trkpt lat="45.08825" lon="5.71086">
        <ele>268.35</ele>
        <time>2021-03-28T14:07:01Z</time>
      </trkpt>
      <trkpt lat="45.08818" lon="5.71087">
        <ele>277.48</ele>
        <time>2021-03-28T14:07:33Z</time>
      </trkpt>
      <trkpt lat="45.08823" lon="5.71086">
        <ele>276.52</ele>
        <time>2021-03-28T14:07:59Z</time>
      </trkpt>
      <trkpt lat="45.08822" lon="5.71089">
        <ele>279.88</ele>
        <time>2021-03-28T14:08:23Z</time>
      </trkpt>
      <trkpt lat="45.08821" lon="5.71089">
        <ele>279.88</ele>
        <time>2021-03-28T14:08:48Z</time>
      </trkpt>
      <trkpt lat="45.08823" lon="5.71089">
        <ele>281.8</ele>
        <time>2021-03-28T14:09:14Z</time>
      </trkpt>
      <trkpt lat="45.08827" lon="5.71082">
        <ele>277.48</ele>
        <time>2021-03-28T14:09:40Z</time>
      </trkpt>
      <trkpt lat="45.08823" lon="5.71088">
        <ele>278.92</ele>
        <time>2021-03-28T14:10:10Z</time>
      </trkpt>
      <trkpt lat="45.08821" lon="5.71089">
        <ele>280.84</ele>
        <time>2021-03-28T14:10:37Z</time>
      </trkpt>
      <trkpt lat="45.08811" lon="5.71085">
        <ele>274.59</ele>
        <time>2021-03-28T14:10:53Z</time>
      </trkpt>
      <trkpt lat="45.088" lon="5.71087">
        <ele>265.46</ele>
        <time>2021-03-28T14:11:10Z</time>
      </trkpt>
      <trkpt lat="45.08794" lon="5.71088">
        <ele>261.14</ele>
        <time>2021-03-28T14:11:19Z</time>
      </trkpt>
      <trkpt lat="45.08779" lon="5.71089">
        <ele>255.85</ele>
        <time>2021-03-28T14:11:35Z</time>
      </trkpt>
      <trkpt lat="45.08763" lon="5.71087">
        <ele>255.85</ele>
        <time>2021-03-28T14:11:51Z</time>
      </trkpt>
      <trkpt lat="45.08756" lon="5.71087">
        <ele>254.89</ele>
        <time>2021-03-28T14:11:58Z</time>
      </trkpt>
      <trkpt lat="45.08744" lon="5.71078">
        <ele>252.48</ele>
        <time>2021-03-28T14:12:13Z</time>
      </trkpt>
      <trkpt lat="45.08741" lon="5.7106">
        <ele>253.44</ele>
        <time>2021-03-28T14:12:27Z</time>
      </trkpt>
      <trkpt lat="45.08742" lon="5.71041">
        <ele>252.96</ele>
        <time>2021-03-28T14:12:41Z</time>
      </trkpt>
      <trkpt lat="45.08745" lon="5.71016">
        <ele>251.52</ele>
        <time>2021-03-28T14:12:59Z</time>
      </trkpt>
      <trkpt lat="45.08747" lon="5.71">
        <ele>251.52</ele>
        <time>2021-03-28T14:13:10Z</time>
      </trkpt>
      <trkpt lat="45.08751" lon="5.70972">
        <ele>253.44</ele>
        <time>2021-03-28T14:13:27Z</time>
      </trkpt>
      <trkpt lat="45.08755" lon="5.70946">
        <ele>257.29</ele>
        <time>2021-03-28T14:13:43Z</time>
      </trkpt>
      <trkpt lat="45.08761" lon="5.70917">
        <ele>261.14</ele>
        <time>2021-03-28T14:14:02Z</time>
      </trkpt>
      <trkpt lat="45.08764" lon="5.70899">
        <ele>259.69</ele>
        <time>2021-03-28T14:14:16Z</time>
      </trkpt>
      <trkpt lat="45.08765" lon="5.70878">
        <ele>257.77</ele>
        <time>2021-03-28T14:14:32Z</time>
      </trkpt>
      <trkpt lat="45.08765" lon="5.70875">
        <ele>257.29</ele>
        <time>2021-03-28T14:14:34Z</time>
      </trkpt>
      <trkpt lat="45.0876" lon="5.70861">
        <ele>256.33</ele>
        <time>2021-03-28T14:14:44Z</time>
      </trkpt>
      <trkpt lat="45.08752" lon="5.70841">
        <ele>255.37</ele>
        <time>2021-03-28T14:14:59Z</time>
      </trkpt>
      <trkpt lat="45.0875" lon="5.70832">
        <ele>252.96</ele>
        <time>2021-03-28T14:15:07Z</time>
      </trkpt>
      <trkpt lat="45.08745" lon="5.70802">
        <ele>258.73</ele>
        <time>2021-03-28T14:15:24Z</time>
      </trkpt>
      <trkpt lat="45.08748" lon="5.70779">
        <ele>261.14</ele>
        <time>2021-03-28T14:15:40Z</time>
      </trkpt>
      <trkpt lat="45.08752" lon="5.70756">
        <ele>261.14</ele>
        <time>2021-03-28T14:15:57Z</time>
      </trkpt>
      <trkpt lat="45.08757" lon="5.7073">
        <ele>263.06</ele>
        <time>2021-03-28T14:16:16Z</time>
      </trkpt>
      <trkpt lat="45.08762" lon="5.7071">
        <ele>263.06</ele>
        <time>2021-03-28T14:16:31Z</time>
      </trkpt>
      <trkpt lat="45.08768" lon="5.70682">
        <ele>264.02</ele>
        <time>2021-03-28T14:16:50Z</time>
      </trkpt>
      <trkpt lat="45.08773" lon="5.7066">
        <ele>265.94</ele>
        <time>2021-03-28T14:17:06Z</time>
      </trkpt>
      <trkpt lat="45.08778" lon="5.70636">
        <ele>266.9</ele>
        <time>2021-03-28T14:17:23Z</time>
      </trkpt>
      <trkpt lat="45.08785" lon="5.70613">
        <ele>267.38</ele>
        <time>2021-03-28T14:17:40Z</time>
      </trkpt>
      <trkpt lat="45.0879" lon="5.70591">
        <ele>267.86</ele>
        <time>2021-03-28T14:17:55Z</time>
      </trkpt>
      <trkpt lat="45.08797" lon="5.70565">
        <ele>267.86</ele>
        <time>2021-03-28T14:18:13Z</time>
      </trkpt>
      <trkpt lat="45.08801" lon="5.70544">
        <ele>268.83</ele>
        <time>2021-03-28T14:18:28Z</time>
      </trkpt>
      <trkpt lat="45.08805" lon="5.7052">
        <ele>268.35</ele>
        <time>2021-03-28T14:18:46Z</time>
      </trkpt>
      <trkpt lat="45.08811" lon="5.70501">
        <ele>270.75</ele>
        <time>2021-03-28T14:19:03Z</time>
      </trkpt>
      <trkpt lat="45.08816" lon="5.70482">
        <ele>267.38</ele>
        <time>2021-03-28T14:19:20Z</time>
      </trkpt>
      <trkpt lat="45.0882" lon="5.70461">
        <ele>261.14</ele>
        <time>2021-03-28T14:19:38Z</time>
      </trkpt>
      <trkpt lat="45.08825" lon="5.70438">
        <ele>257.29</ele>
        <time>2021-03-28T14:19:56Z</time>
      </trkpt>
      <trkpt lat="45.0883" lon="5.70414">
        <ele>257.77</ele>
        <time>2021-03-28T14:20:15Z</time>
      </trkpt>
      <trkpt lat="45.08835" lon="5.70386">
        <ele>264.5</ele>
        <time>2021-03-28T14:20:32Z</time>
      </trkpt>
      <trkpt lat="45.08834" lon="5.70368">
        <ele>265.94</ele>
        <time>2021-03-28T14:20:49Z</time>
      </trkpt>
      <trkpt lat="45.08834" lon="5.70367">
        <ele>265.94</ele>
        <time>2021-03-28T14:20:50Z</time>
      </trkpt>
      <trkpt lat="45.08822" lon="5.70357">
        <ele>265.94</ele>
        <time>2021-03-28T14:21:06Z</time>
      </trkpt>
      <trkpt lat="45.08813" lon="5.70348">
        <ele>265.46</ele>
        <time>2021-03-28T14:21:23Z</time>
      </trkpt>
      <trkpt lat="45.08799" lon="5.70333">
        <ele>264.98</ele>
        <time>2021-03-28T14:21:40Z</time>
      </trkpt>
      <trkpt lat="45.08789" lon="5.70322">
        <ele>264.98</ele>
        <time>2021-03-28T14:21:53Z</time>
      </trkpt>
      <trkpt lat="45.08775" lon="5.70309">
        <ele>264.5</ele>
        <time>2021-03-28T14:22:09Z</time>
      </trkpt>
      <trkpt lat="45.08763" lon="5.70296">
        <ele>264.02</ele>
        <time>2021-03-28T14:22:24Z</time>
      </trkpt>
      <trkpt lat="45.08752" lon="5.70284">
        <ele>263.06</ele>
        <time>2021-03-28T14:22:39Z</time>
      </trkpt>
      <trkpt lat="45.08741" lon="5.70273">
        <ele>261.14</ele>
        <time>2021-03-28T14:22:53Z</time>
      </trkpt>
      <trkpt lat="45.08727" lon="5.70261">
        <ele>259.69</ele>
        <time>2021-03-28T14:23:10Z</time>
      </trkpt>
      <trkpt lat="45.08719" lon="5.70253">
        <ele>260.17</ele>
        <time>2021-03-28T14:23:19Z</time>
      </trkpt>
      <trkpt lat="45.08707" lon="5.70239">
        <ele>261.62</ele>
        <time>2021-03-28T14:23:34Z</time>
      </trkpt>
      <trkpt lat="45.087" lon="5.70225">
        <ele>261.62</ele>
        <time>2021-03-28T14:23:47Z</time>
      </trkpt>
      <trkpt lat="45.08696" lon="5.70205">
        <ele>260.17</ele>
        <time>2021-03-28T14:24:02Z</time>
      </trkpt>
      <trkpt lat="45.08695" lon="5.70198">
        <ele>259.21</ele>
        <time>2021-03-28T14:24:07Z</time>
      </trkpt>
      <trkpt lat="45.08692" lon="5.70166">
        <ele>262.1</ele>
        <time>2021-03-28T14:24:26Z</time>
      </trkpt>
      <trkpt lat="45.08693" lon="5.70136">
        <ele>265.94</ele>
        <time>2021-03-28T14:24:46Z</time>
      </trkpt>
      <trkpt lat="45.08693" lon="5.70112">
        <ele>265.46</ele>
        <time>2021-03-28T14:25:03Z</time>
      </trkpt>
      <trkpt lat="45.08696" lon="5.70087">
        <ele>267.38</ele>
        <time>2021-03-28T14:25:21Z</time>
      </trkpt>
      <trkpt lat="45.08696" lon="5.70062">
        <ele>267.38</ele>
        <time>2021-03-28T14:25:38Z</time>
      </trkpt>
      <trkpt lat="45.08696" lon="5.70037">
        <ele>265.46</ele>
        <time>2021-03-28T14:25:55Z</time>
      </trkpt>
      <trkpt lat="45.08698" lon="5.70016">
        <ele>265.94</ele>
        <time>2021-03-28T14:26:09Z</time>
      </trkpt>
      <trkpt lat="45.08702" lon="5.69992">
        <ele>268.35</ele>
        <time>2021-03-28T14:26:25Z</time>
      </trkpt>
      <trkpt lat="45.08703" lon="5.69987">
        <ele>268.35</ele>
        <time>2021-03-28T14:26:29Z</time>
      </trkpt>
      <trkpt lat="45.08705" lon="5.69964">
        <ele>268.83</ele>
        <time>2021-03-28T14:26:46Z</time>
      </trkpt>
      <trkpt lat="45.08707" lon="5.69954">
        <ele>269.31</ele>
        <time>2021-03-28T14:27:06Z</time>
      </trkpt>
      <trkpt lat="45.08709" lon="5.69938">
        <ele>268.83</ele>
        <time>2021-03-28T14:27:22Z</time>
      </trkpt>
      <trkpt lat="45.08709" lon="5.69933">
        <ele>268.35</ele>
        <time>2021-03-28T14:27:26Z</time>
      </trkpt>
      <trkpt lat="45.08709" lon="5.69927">
        <ele>268.83</ele>
        <time>2021-03-28T14:27:30Z</time>
      </trkpt>
      <trkpt lat="45.0871" lon="5.69902">
        <ele>267.38</ele>
        <time>2021-03-28T14:27:48Z</time>
      </trkpt>
      <trkpt lat="45.08713" lon="5.69881">
        <ele>266.9</ele>
        <time>2021-03-28T14:28:03Z</time>
      </trkpt>
      <trkpt lat="45.08715" lon="5.69861">
        <ele>266.42</ele>
        <time>2021-03-28T14:28:20Z</time>
      </trkpt>
      <trkpt lat="45.08717" lon="5.69843">
        <ele>266.9</ele>
        <time>2021-03-28T14:28:36Z</time>
      </trkpt>
      <trkpt lat="45.0872" lon="5.69822">
        <ele>265.46</ele>
        <time>2021-03-28T14:28:52Z</time>
      </trkpt>
      <trkpt lat="45.08722" lon="5.69796">
        <ele>264.02</ele>
        <time>2021-03-28T14:29:10Z</time>
      </trkpt>
      <trkpt lat="45.08723" lon="5.69778">
        <ele>264.5</ele>
        <time>2021-03-28T14:29:27Z</time>
      </trkpt>
      <trkpt lat="45.0872" lon="5.69769">
        <ele>264.98</ele>
        <time>2021-03-28T14:29:51Z</time>
      </trkpt>
      <trkpt lat="45.08723" lon="5.69749">
        <ele>264.5</ele>
        <time>2021-03-28T14:30:10Z</time>
      </trkpt>
      <trkpt lat="45.08722" lon="5.69727">
        <ele>266.42</ele>
        <time>2021-03-28T14:30:27Z</time>
      </trkpt>
      <trkpt lat="45.08719" lon="5.69707">
        <ele>266.9</ele>
        <time>2021-03-28T14:30:43Z</time>
      </trkpt>
      <trkpt lat="45.08717" lon="5.69693">
        <ele>266.9</ele>
        <time>2021-03-28T14:30:58Z</time>
      </trkpt>
      <trkpt lat="45.08712" lon="5.69667">
        <ele>266.9</ele>
        <time>2021-03-28T14:31:16Z</time>
      </trkpt>
      <trkpt lat="45.08707" lon="5.69643">
        <ele>266.9</ele>
        <time>2021-03-28T14:31:34Z</time>
      </trkpt>
      <trkpt lat="45.08702" lon="5.69617">
        <ele>265.94</ele>
        <time>2021-03-28T14:31:52Z</time>
      </trkpt>
      <trkpt lat="45.08701" lon="5.69608">
        <ele>266.42</ele>
        <time>2021-03-28T14:31:59Z</time>
      </trkpt>
      <trkpt lat="45.08701" lon="5.69583">
        <ele>267.86</ele>
        <time>2021-03-28T14:32:18Z</time>
      </trkpt>
      <trkpt lat="45.08702" lon="5.6957">
        <ele>268.35</ele>
        <time>2021-03-28T14:32:29Z</time>
      </trkpt>
      <trkpt lat="45.08705" lon="5.6955">
        <ele>270.27</ele>
        <time>2021-03-28T14:32:44Z</time>
      </trkpt>
      <trkpt lat="45.08705" lon="5.69548">
        <ele>270.27</ele>
        <time>2021-03-28T14:32:45Z</time>
      </trkpt>
      <trkpt lat="45.08706" lon="5.69524">
        <ele>269.79</ele>
        <time>2021-03-28T14:33:02Z</time>
      </trkpt>
      <trkpt lat="45.08708" lon="5.69501">
        <ele>267.86</ele>
        <time>2021-03-28T14:33:19Z</time>
      </trkpt>
      <trkpt lat="45.08708" lon="5.69479">
        <ele>265.94</ele>
        <time>2021-03-28T14:33:36Z</time>
      </trkpt>
      <trkpt lat="45.08708" lon="5.69458">
        <ele>262.58</ele>
        <time>2021-03-28T14:33:52Z</time>
      </trkpt>
      <trkpt lat="45.08708" lon="5.69438">
        <ele>264.02</ele>
        <time>2021-03-28T14:34:06Z</time>
      </trkpt>
      <trkpt lat="45.0871" lon="5.69416">
        <ele>266.42</ele>
        <time>2021-03-28T14:34:23Z</time>
      </trkpt>
      <trkpt lat="45.08713" lon="5.69396">
        <ele>268.35</ele>
        <time>2021-03-28T14:34:38Z</time>
      </trkpt>
      <trkpt lat="45.08714" lon="5.69374">
        <ele>268.35</ele>
        <time>2021-03-28T14:34:55Z</time>
      </trkpt>
      <trkpt lat="45.08717" lon="5.69356">
        <ele>267.38</ele>
        <time>2021-03-28T14:35:11Z</time>
      </trkpt>
      <trkpt lat="45.0872" lon="5.69335">
        <ele>266.9</ele>
        <time>2021-03-28T14:35:26Z</time>
      </trkpt>
      <trkpt lat="45.08723" lon="5.69308">
        <ele>267.86</ele>
        <time>2021-03-28T14:35:45Z</time>
      </trkpt>
      <trkpt lat="45.08726" lon="5.69287">
        <ele>267.38</ele>
        <time>2021-03-28T14:36:01Z</time>
      </trkpt>
      <trkpt lat="45.08729" lon="5.69265">
        <ele>267.38</ele>
        <time>2021-03-28T14:36:18Z</time>
      </trkpt>
      <trkpt lat="45.08731" lon="5.69244">
        <ele>267.86</ele>
        <time>2021-03-28T14:36:34Z</time>
      </trkpt>
      <trkpt lat="45.08733" lon="5.69223">
        <ele>267.86</ele>
        <time>2021-03-28T14:36:50Z</time>
      </trkpt>
      <trkpt lat="45.08737" lon="5.69213">
        <ele>268.35</ele>
        <time>2021-03-28T14:37:06Z</time>
      </trkpt>
      <trkpt lat="45.0874" lon="5.69201">
        <ele>268.35</ele>
        <time>2021-03-28T14:37:21Z</time>
      </trkpt>
      <trkpt lat="45.08742" lon="5.69181">
        <ele>267.86</ele>
        <time>2021-03-28T14:37:37Z</time>
      </trkpt>
      <trkpt lat="45.08745" lon="5.69165">
        <ele>267.38</ele>
        <time>2021-03-28T14:37:50Z</time>
      </trkpt>
      <trkpt lat="45.08749" lon="5.69147">
        <ele>268.83</ele>
        <time>2021-03-28T14:38:06Z</time>
      </trkpt>
      <trkpt lat="45.08751" lon="5.69137">
        <ele>268.35</ele>
        <time>2021-03-28T14:38:25Z</time>
      </trkpt>
      <trkpt lat="45.08756" lon="5.69117">
        <ele>268.35</ele>
        <time>2021-03-28T14:38:42Z</time>
      </trkpt>
      <trkpt lat="45.08761" lon="5.69096">
        <ele>270.27</ele>
        <time>2021-03-28T14:38:59Z</time>
      </trkpt>
      <trkpt lat="45.08761" lon="5.69073">
        <ele>270.27</ele>
        <time>2021-03-28T14:39:17Z</time>
      </trkpt>
      <trkpt lat="45.0876" lon="5.69053">
        <ele>269.79</ele>
        <time>2021-03-28T14:39:34Z</time>
      </trkpt>
      <trkpt lat="45.08749" lon="5.69035">
        <ele>267.86</ele>
        <time>2021-03-28T14:39:51Z</time>
      </trkpt>
      <trkpt lat="45.08748" lon="5.69034">
        <ele>267.86</ele>
        <time>2021-03-28T14:39:52Z</time>
      </trkpt>
      <trkpt lat="45.08737" lon="5.69018">
        <ele>267.86</ele>
        <time>2021-03-28T14:40:08Z</time>
      </trkpt>
      <trkpt lat="45.08732" lon="5.6901">
        <ele>268.35</ele>
        <time>2021-03-28T14:40:23Z</time>
      </trkpt>
      <trkpt lat="45.08719" lon="5.69002">
        <ele>268.83</ele>
        <time>2021-03-28T14:40:40Z</time>
      </trkpt>
      <trkpt lat="45.08712" lon="5.68989">
        <ele>269.79</ele>
        <time>2021-03-28T14:40:55Z</time>
      </trkpt>
      <trkpt lat="45.08706" lon="5.68975">
        <ele>268.83</ele>
        <time>2021-03-28T14:41:09Z</time>
      </trkpt>
      <trkpt lat="45.08695" lon="5.68955">
        <ele>269.31</ele>
        <time>2021-03-28T14:41:27Z</time>
      </trkpt>
      <trkpt lat="45.08681" lon="5.68935">
        <ele>269.31</ele>
        <time>2021-03-28T14:41:44Z</time>
      </trkpt>
      <trkpt lat="45.0867" lon="5.68923">
        <ele>270.27</ele>
        <time>2021-03-28T14:42:00Z</time>
      </trkpt>
      <trkpt lat="45.08658" lon="5.68922">
        <ele>270.27</ele>
        <time>2021-03-28T14:42:17Z</time>
      </trkpt>
      <trkpt lat="45.08647" lon="5.68915">
        <ele>271.23</ele>
        <time>2021-03-28T14:42:33Z</time>
      </trkpt>
      <trkpt lat="45.08636" lon="5.68906">
        <ele>271.71</ele>
        <time>2021-03-28T14:42:50Z</time>
      </trkpt>
      <trkpt lat="45.08636" lon="5.6891">
        <ele>272.67</ele>
        <time>2021-03-28T14:43:13Z</time>
      </trkpt>
      <trkpt lat="45.08635" lon="5.6891">
        <ele>274.59</ele>
        <time>2021-03-28T14:43:45Z</time>
      </trkpt>
      <trkpt lat="45.08639" lon="5.6891">
        <ele>278.92</ele>
        <time>2021-03-28T14:44:05Z</time>
      </trkpt>
    </trkseg>
  </trk>
</gpx>